Providence, Rhode Island
Traffic Map
Current Weather Conditions
Providence, Rhode Island
Overcast Light Rain
Overcast
52°
Feels Like: 52°
Wind Chill: 52° Ceiling: 4300
Heat Index: 52° Visibility: 10mi
Dew Point: 50° Wind: 10mph
Humidity: 93% Direction: 330° (NNW)
Pressure: 29.54in Gusts: 18mph
Raw Report DataKPVD 261506Z 33009G16KT 10SM -RA SCT014 BKN043 OVC080 11/10 A2954 RMK AO2 P0000 T01110100
Traffic Incident Summary
Active as of:
Severity:
Category:
InformationThere was an issue retrieving the traffic information for this location. Please try a different location or try again shortly.
Advertisements
Track Severe Weather on mobile